Time,TemperatureF,DewpointF,PressureIn,WindDirection,WindDirectionDegrees,WindSpeedMPH,WindSpeedGustMPH,Humidity,HourlyPrecipIn,Conditions,Clouds,dailyrainin,SolarRadiationWatts/m^2,SoftwareType,DateUTC
2013-08-08 00:02:00,51.0,50.0,-100.00,SW,220,0.0,1.0,97,0.00,,,0.02,0.000000,,2013-08-08 05:02:00,
2013-08-08 00:10:00,49.0,48.0,-100.00,SW,220,0.0,0.0,98,0.00,,,0.01,0.000000,,2013-08-08 05:10:00,
2013-08-08 00:33:00,49.0,48.0,-100.00,SW,220,0.0,0.0,98,0.00,,,0.01,0.000000,,2013-08-08 05:33:00,
2013-08-08 00:43:00,49.0,48.0,-100.00,SW,220,0.0,0.0,98,0.00,,,0.01,0.000000,,2013-08-08 05:43:00,
2013-08-08 00:52:00,49.0,48.0,-100.00,SW,220,0.0,0.0,98,0.00,,,0.01,0.000000,,2013-08-08 05:52:00,
2013-08-08 01:01:00,49.0,48.0,-100.00,SW,220,0.0,0.0,98,0.00,,,0.01,0.000000,,2013-08-08 06:01:00,
2013-08-08 01:10:00,49.0,49.0,-100.00,SW,220,0.0,0.0,99,0.00,,,0.00,0.000000,,2013-08-08 06:10:00,
2013-08-08 01:43:00,49.0,49.0,-100.00,SW,220,0.0,0.0,99,0.00,,,0.00,0.000000,,2013-08-08 06:43:00,
2013-08-08 01:52:00,49.0,49.0,-100.00,SW,220,0.0,0.0,99,0.00,,,0.00,0.000000,,2013-08-08 06:52:00,
2013-08-08 02:01:00,49.0,49.0,-100.00,SW,220,0.0,0.0,99,0.00,,,0.00,0.000000,,2013-08-08 07:01:00,
2013-08-08 02:10:00,48.0,48.0,-100.00,SW,220,0.0,0.0,99,0.00,,,0.00,0.000000,,2013-08-08 07:10:00,
2013-08-08 02:32:00,48.0,48.0,-100.00,SW,220,0.0,0.0,99,0.00,,,0.00,0.000000,,2013-08-08 07:32:00,
2013-08-08 02:43:00,48.0,48.0,-100.00,SW,220,0.0,0.0,99,0.00,,,0.00,0.000000,,2013-08-08 07:43:00,
2013-08-08 02:53:00,48.0,48.0,-100.00,SW,220,0.0,0.0,99,0.00,,,0.00,0.000000,,2013-08-08 07:53:00,
2013-08-08 03:02:00,48.0,48.0,-100.00,SW,220,0.0,0.0,99,0.00,,,0.00,0.000000,,2013-08-08 08:02:00,
2013-08-08 03:10:00,48.0,48.0,-100.00,SW,220,0.0,0.0,99,0.00,,,0.00,0.000000,,2013-08-08 08:10:00,
2013-08-08 03:32:00,48.0,48.0,-100.00,SW,220,0.0,0.0,99,0.00,,,0.00,0.000000,,2013-08-08 08:32:00,
2013-08-08 03:43:00,48.0,48.0,-100.00,SW,220,0.0,0.0,99,0.00,,,0.00,0.000000,,2013-08-08 08:43:00,
2013-08-08 03:53:00,48.0,48.0,-100.00,SW,220,0.0,0.0,99,0.00,,,0.00,0.000000,,2013-08-08 08:53:00,
2013-08-08 04:02:00,48.0,48.0,-100.00,SW,220,0.0,0.0,99,0.00,,,0.00,0.000000,,2013-08-08 09:02:00,
2013-08-08 04:10:00,47.0,47.0,-100.00,SW,220,0.0,0.0,99,0.00,,,0.00,0.000000,,2013-08-08 09:10:00,
2013-08-08 04:32:00,47.0,47.0,-100.00,SW,220,0.0,0.0,99,0.00,,,0.00,0.000000,,2013-08-08 09:32:00,
2013-08-08 04:43:00,47.0,47.0,-100.00,SW,220,0.0,0.0,99,0.00,,,0.00,0.000000,,2013-08-08 09:43:00,
2013-08-08 04:53:00,47.0,47.0,-100.00,SW,220,0.0,0.0,99,0.00,,,0.00,0.000000,,2013-08-08 09:53:00,
2013-08-08 05:01:00,47.0,47.0,-100.00,SW,220,0.0,0.0,99,0.00,,,0.00,0.000000,,2013-08-08 10:01:00,
2013-08-08 05:10:00,46.0,46.0,-100.00,SW,220,0.0,1.0,99,0.00,,,0.00,0.000000,,2013-08-08 10:10:00,
2013-08-08 05:33:00,46.0,46.0,-100.00,SW,220,0.0,1.0,99,0.00,,,0.00,0.000000,,2013-08-08 10:33:00,
2013-08-08 05:43:00,46.0,46.0,-100.00,SW,220,0.0,1.0,99,0.00,,,0.00,0.000000,,2013-08-08 10:43:00,
2013-08-08 05:52:00,46.0,46.0,-100.00,SW,220,0.0,1.0,99,0.00,,,0.00,0.000000,,2013-08-08 10:52:00,
2013-08-08 06:02:00,46.0,46.0,-100.00,SW,220,0.0,1.0,99,0.00,,,0.00,0.000000,,2013-08-08 11:02:00,
2013-08-08 06:10:00,46.0,46.0,-100.00,SW,220,0.0,0.0,99,0.00,,,0.00,2.000000,,2013-08-08 11:10:00,
2013-08-08 06:43:00,46.0,46.0,-100.00,SW,220,0.0,0.0,99,0.00,,,0.00,2.000000,,2013-08-08 11:43:00,
2013-08-08 06:52:00,46.0,46.0,-100.00,SW,220,0.0,0.0,99,0.00,,,0.00,2.000000,,2013-08-08 11:52:00,
2013-08-08 07:01:00,46.0,46.0,-100.00,SW,220,0.0,0.0,99,0.00,,,0.00,2.000000,,2013-08-08 12:01:00,
2013-08-08 07:10:00,48.0,48.0,-100.00,SW,220,0.0,0.0,99,0.00,,,0.00,17.000000,,2013-08-08 12:10:00,
2013-08-08 07:43:00,48.0,48.0,-100.00,SW,220,0.0,0.0,99,0.00,,,0.00,17.000000,,2013-08-08 12:43:00,
2013-08-08 07:53:00,48.0,48.0,-100.00,SW,220,0.0,0.0,99,0.00,,,0.00,17.000000,,2013-08-08 12:53:00,
2013-08-08 08:01:00,48.0,48.0,-100.00,SW,220,0.0,0.0,99,0.00,,,0.00,17.000000,,2013-08-08 13:01:00,
2013-08-08 08:10:00,55.0,55.0,-100.00,SSE,154,1.0,3.0,99,0.00,,,0.00,29.000000,,2013-08-08 13:10:00,
2013-08-08 08:32:00,55.0,55.0,-100.00,SSE,154,1.0,3.0,99,0.00,,,0.00,29.000000,,2013-08-08 13:32:00,
2013-08-08 08:43:00,55.0,55.0,-100.00,SSE,154,1.0,3.0,99,0.00,,,0.00,29.000000,,2013-08-08 13:43:00,
2013-08-08 08:53:00,55.0,55.0,-100.00,SSE,154,1.0,3.0,99,0.00,,,0.00,29.000000,,2013-08-08 13:53:00,
2013-08-08 09:02:00,55.0,55.0,-100.00,SSE,154,1.0,3.0,99,0.00,,,0.00,29.000000,,2013-08-08 14:02:00,
2013-08-08 09:10:00,61.0,53.0,-100.00,SW,222,3.0,6.0,74,0.00,,,0.00,258.000000,,2013-08-08 14:10:00,
2013-08-08 09:32:00,61.0,53.0,-100.00,SW,222,3.0,6.0,74,0.00,,,0.00,258.000000,,2013-08-08 14:32:00,
2013-08-08 09:43:00,61.0,53.0,-100.00,SW,222,3.0,6.0,74,0.00,,,0.00,258.000000,,2013-08-08 14:43:00,
2013-08-08 09:53:00,61.0,53.0,-100.00,SW,222,3.0,6.0,74,0.00,,,0.00,258.000000,,2013-08-08 14:53:00,
2013-08-08 10:02:00,61.0,53.0,-100.00,SW,222,3.0,6.0,74,0.00,,,0.00,258.000000,,2013-08-08 15:02:00,
2013-08-08 10:10:00,66.0,52.0,-100.00,SSW,208,1.0,6.0,61,0.00,,,-99.99,285.000000,,2013-08-08 15:10:00,
2013-08-08 10:43:00,66.0,52.0,-100.00,SSW,208,1.0,6.0,61,0.00,,,-99.99,285.000000,,2013-08-08 15:43:00,
2013-08-08 10:53:00,66.0,52.0,-100.00,SSW,208,1.0,6.0,61,0.00,,,-99.99,285.000000,,2013-08-08 15:53:00,
2013-08-08 11:02:00,66.0,52.0,-100.00,SSW,208,1.0,6.0,61,0.00,,,-99.99,285.000000,,2013-08-08 16:02:00,
2013-08-08 11:10:00,69.0,51.0,-100.00,West,274,3.0,8.0,52,0.00,,,0.00,620.000000,,2013-08-08 16:10:00,
2013-08-08 11:32:00,69.0,51.0,-100.00,West,274,3.0,8.0,52,0.00,,,0.00,620.000000,,2013-08-08 16:32:00,
2013-08-08 11:42:00,69.0,51.0,-100.00,West,274,3.0,8.0,52,0.00,,,0.00,620.000000,,2013-08-08 16:42:00,
2013-08-08 11:52:00,69.0,51.0,-100.00,West,274,3.0,8.0,52,0.00,,,0.00,620.000000,,2013-08-08 16:52:00,
2013-08-08 12:02:00,69.0,51.0,-100.00,West,274,3.0,8.0,52,0.00,,,0.00,620.000000,,2013-08-08 17:02:00,
2013-08-08 12:10:00,71.0,50.0,-100.00,WSW,244,4.0,12.0,47,0.00,,,0.00,649.000000,,2013-08-08 17:10:00,
2013-08-08 12:32:00,71.0,50.0,-100.00,WSW,244,4.0,12.0,47,0.00,,,0.00,649.000000,,2013-08-08 17:32:00,
2013-08-08 12:43:00,71.0,50.0,-100.00,WSW,244,4.0,12.0,47,0.00,,,0.00,649.000000,,2013-08-08 17:43:00,
2013-08-08 12:52:00,71.0,50.0,-100.00,WSW,244,4.0,12.0,47,0.00,,,0.00,649.000000,,2013-08-08 17:52:00,
2013-08-08 13:01:00,71.0,50.0,-100.00,WSW,244,4.0,12.0,47,0.00,,,0.00,649.000000,,2013-08-08 18:01:00,
2013-08-08 13:10:00,71.0,51.0,-100.00,SW,217,4.0,11.0,49,0.00,,,0.00,568.000000,,2013-08-08 18:10:00,
2013-08-08 13:32:00,71.0,51.0,-100.00,SW,217,4.0,11.0,49,0.00,,,0.00,568.000000,,2013-08-08 18:32:00,
2013-08-08 13:43:00,71.0,51.0,-100.00,SW,217,4.0,11.0,49,0.00,,,0.00,568.000000,,2013-08-08 18:43:00,
2013-08-08 13:53:00,71.0,51.0,-100.00,SW,217,4.0,11.0,49,0.00,,,0.00,568.000000,,2013-08-08 18:53:00,
2013-08-08 14:01:00,71.0,51.0,-100.00,SW,217,4.0,11.0,49,0.00,,,0.00,568.000000,,2013-08-08 19:01:00,
2013-08-08 14:10:00,72.0,51.0,-100.00,West,265,3.0,15.0,47,0.00,,,0.00,449.000000,,2013-08-08 19:10:00,
2013-08-08 14:32:00,72.0,51.0,-100.00,West,265,3.0,15.0,47,0.00,,,0.00,449.000000,,2013-08-08 19:32:00,
2013-08-08 14:43:00,72.0,51.0,-100.00,West,265,3.0,15.0,47,0.00,,,0.00,449.000000,,2013-08-08 19:43:00,
2013-08-08 14:58:00,72.0,51.0,-100.00,West,265,3.0,15.0,47,0.00,,,0.00,449.000000,,2013-08-08 19:58:00,
2013-08-08 15:32:00,73.0,50.0,-100.00,WSW,237,5.0,14.0,45,0.00,,,0.00,387.000000,,2013-08-08 20:32:00,
2013-08-08 15:42:00,73.0,50.0,-100.00,WSW,237,5.0,14.0,45,0.00,,,0.00,387.000000,,2013-08-08 20:42:00,
2013-08-08 15:52:00,73.0,50.0,-100.00,WSW,237,5.0,14.0,45,0.00,,,0.00,387.000000,,2013-08-08 20:52:00,
2013-08-08 16:01:00,73.0,50.0,-100.00,WSW,237,5.0,14.0,45,0.00,,,0.00,387.000000,,2013-08-08 21:01:00,
2013-08-08 16:10:00,73.0,49.0,-100.00,WNW,286,3.0,12.0,43,0.00,,,0.00,470.000000,,2013-08-08 21:10:00,
2013-08-08 16:34:00,73.0,49.0,-100.00,WNW,286,3.0,12.0,43,0.00,,,0.00,470.000000,,2013-08-08 21:34:00,
2013-08-08 16:46:00,73.0,49.0,-100.00,WNW,286,3.0,12.0,43,0.00,,,0.00,470.000000,,2013-08-08 21:46:00,
2013-08-08 16:57:00,73.0,49.0,-100.00,WNW,286,3.0,12.0,43,0.00,,,0.00,470.000000,,2013-08-08 21:57:00,
2013-08-08 17:04:00,73.0,49.0,-100.00,WNW,286,3.0,12.0,43,0.00,,,0.00,470.000000,,2013-08-08 22:04:00,
2013-08-08 17:10:00,66.0,56.0,-100.00,NNW,344,6.0,17.0,69,0.00,,,0.00,205.000000,,2013-08-08 22:10:00,
2013-08-08 17:37:00,66.0,56.0,-100.00,NNW,344,6.0,17.0,69,0.00,,,0.00,205.000000,,2013-08-08 22:37:00,
2013-08-08 17:49:00,66.0,56.0,-100.00,NNW,344,6.0,17.0,69,0.00,,,0.00,205.000000,,2013-08-08 22:49:00,
2013-08-08 17:58:00,66.0,56.0,-100.00,NNW,344,6.0,17.0,69,0.00,,,0.00,205.000000,,2013-08-08 22:58:00,
2013-08-08 18:04:00,66.0,56.0,-100.00,NNW,344,6.0,17.0,69,0.00,,,0.00,205.000000,,2013-08-08 23:04:00,
2013-08-08 18:37:00,66.0,59.0,-100.00,NNE,16,2.0,8.0,78,0.00,,,0.00,119.000000,,2013-08-08 23:37:00,
2013-08-08 18:50:00,66.0,59.0,-100.00,NNE,16,2.0,8.0,78,0.00,,,0.00,119.000000,,2013-08-08 23:50:00,
2013-08-08 18:57:00,66.0,59.0,-100.00,NNE,16,2.0,8.0,78,0.00,,,0.00,119.000000,,2013-08-08 23:57:00,
2013-08-08 19:05:00,66.0,59.0,-100.00,NNE,16,2.0,8.0,78,0.00,,,0.00,119.000000,,2013-08-09 00:05:00,
2013-08-08 19:10:00,62.0,59.0,-100.00,North,8,3.0,10.0,89,0.03,,,0.03,25.000000,,2013-08-09 00:10:00,
2013-08-08 19:35:00,62.0,59.0,-100.00,North,8,3.0,10.0,89,0.03,,,0.03,25.000000,,2013-08-09 00:35:00,
2013-08-08 19:48:00,62.0,59.0,-100.00,North,8,3.0,10.0,89,0.03,,,0.03,25.000000,,2013-08-09 00:48:00,
2013-08-08 19:56:00,62.0,59.0,-100.00,North,8,3.0,10.0,89,0.03,,,0.03,25.000000,,2013-08-09 00:56:00,
2013-08-08 20:03:00,62.0,59.0,-100.00,North,8,3.0,10.0,89,0.03,,,0.03,25.000000,,2013-08-09 01:03:00,
2013-08-08 20:10:00,60.0,59.0,-100.00,SW,216,0.0,5.0,96,0.00,,,0.03,14.000000,,2013-08-09 01:10:00,
2013-08-08 20:47:00,60.0,59.0,-100.00,SW,216,0.0,5.0,96,0.00,,,0.03,14.000000,,2013-08-09 01:47:00,
2013-08-08 20:59:00,60.0,59.0,-100.00,SW,216,0.0,5.0,96,0.00,,,0.03,14.000000,,2013-08-09 01:59:00,
2013-08-08 21:04:00,60.0,59.0,-100.00,SW,216,0.0,5.0,96,0.00,,,0.03,14.000000,,2013-08-09 02:04:00,
2013-08-08 21:10:00,59.0,58.0,-100.00,ESE,121,0.0,1.0,98,0.00,,,0.03,1.000000,,2013-08-09 02:10:00,
2013-08-08 21:39:00,59.0,58.0,-100.00,ESE,121,0.0,1.0,98,0.00,,,0.03,1.000000,,2013-08-09 02:39:00,
2013-08-08 21:47:00,59.0,58.0,-100.00,ESE,121,0.0,1.0,98,0.00,,,0.03,1.000000,,2013-08-09 02:47:00,
2013-08-08 21:57:00,59.0,58.0,-100.00,ESE,121,0.0,1.0,98,0.00,,,0.03,1.000000,,2013-08-09 02:57:00,
2013-08-08 22:06:00,59.0,58.0,-100.00,ESE,121,0.0,1.0,98,0.00,,,0.03,1.000000,,2013-08-09 03:06:00,
2013-08-08 22:10:00,58.0,57.0,-100.00,ESE,121,0.0,0.0,98,0.00,,,0.03,0.000000,,2013-08-09 03:10:00,
2013-08-08 22:36:00,58.0,57.0,-100.00,ESE,121,0.0,0.0,98,0.00,,,0.03,0.000000,,2013-08-09 03:36:00,
2013-08-08 22:47:00,58.0,57.0,-100.00,ESE,121,0.0,0.0,98,0.00,,,0.03,0.000000,,2013-08-09 03:47:00,
2013-08-08 22:56:00,58.0,57.0,-100.00,ESE,121,0.0,0.0,98,0.00,,,0.03,0.000000,,2013-08-09 03:56:00,
2013-08-08 23:01:00,58.0,57.0,-100.00,ESE,121,0.0,0.0,98,0.00,,,0.03,0.000000,,2013-08-09 04:01:00,
2013-08-08 23:10:00,57.0,57.0,-100.00,NNW,343,0.0,4.0,99,0.00,,,0.03,0.000000,,2013-08-09 04:10:00,
2013-08-08 23:33:00,57.0,57.0,-100.00,NNW,343,0.0,4.0,99,0.00,,,0.03,0.000000,,2013-08-09 04:33:00,
2013-08-08 23:43:00,57.0,57.0,-100.00,NNW,343,0.0,4.0,99,0.00,,,0.03,0.000000,,2013-08-09 04:43:00,
2013-08-08 23:53:00,57.0,57.0,-100.00,NNW,343,0.0,4.0,99,0.00,,,0.03,0.000000,,2013-08-09 04:53:00,